sensor_id;sensor_type;location;lat;lon;timestamp;P1;durP1;ratioP1;P2;durP2;ratioP2
79755;SDS011;69239;50.678;12.280;2023-07-20T00:01:48;6.45;;;3.53;;
79755;SDS011;69239;50.678;12.280;2023-07-20T00:04:14;5.32;;;3.03;;
79755;SDS011;69239;50.678;12.280;2023-07-20T00:06:39;5.53;;;3.40;;
79755;SDS011;69239;50.678;12.280;2023-07-20T00:09:08;4.10;;;2.78;;
79755;SDS011;69239;50.678;12.280;2023-07-20T00:11:35;6.65;;;2.83;;
79755;SDS011;69239;50.678;12.280;2023-07-20T00:14:03;6.22;;;2.65;;
79755;SDS011;69239;50.678;12.280;2023-07-20T00:16:29;3.67;;;2.25;;
79755;SDS011;69239;50.678;12.280;2023-07-20T00:18:55;5.38;;;2.83;;
79755;SDS011;69239;50.678;12.280;2023-07-20T00:21:20;4.70;;;3.10;;
79755;SDS011;69239;50.678;12.280;2023-07-20T00:23:45;4.63;;;2.50;;
79755;SDS011;69239;50.678;12.280;2023-07-20T00:26:11;4.60;;;2.97;;
79755;SDS011;69239;50.678;12.280;2023-07-20T00:28:36;4.60;;;3.10;;
79755;SDS011;69239;50.678;12.280;2023-07-20T00:31:01;4.78;;;3.38;;
79755;SDS011;69239;50.678;12.280;2023-07-20T00:40:11;3.60;;;2.38;;
79755;SDS011;69239;50.678;12.280;2023-07-20T00:42:36;4.15;;;2.88;;
79755;SDS011;69239;50.678;12.280;2023-07-20T00:45:01;6.32;;;2.72;;
79755;SDS011;69239;50.678;12.280;2023-07-20T00:47:27;3.50;;;2.60;;
79755;SDS011;69239;50.678;12.280;2023-07-20T00:49:53;3.92;;;2.58;;
79755;SDS011;69239;50.678;12.280;2023-07-20T00:52:20;4.63;;;2.92;;
79755;SDS011;69239;50.678;12.280;2023-07-20T00:54:48;3.30;;;2.40;;
79755;SDS011;69239;50.678;12.280;2023-07-20T00:57:14;5.70;;;3.58;;
79755;SDS011;69239;50.678;12.280;2023-07-20T00:59:40;5.72;;;3.05;;
79755;SDS011;69239;50.678;12.280;2023-07-20T01:02:06;4.93;;;2.97;;
79755;SDS011;69239;50.678;12.280;2023-07-20T01:04:31;4.22;;;3.55;;
79755;SDS011;69239;50.678;12.280;2023-07-20T01:06:59;3.35;;;3.05;;
79755;SDS011;69239;50.678;12.280;2023-07-20T01:09:29;6.53;;;3.40;;
79755;SDS011;69239;50.678;12.280;2023-07-20T01:12:08;6.20;;;3.80;;
79755;SDS011;69239;50.678;12.280;2023-07-20T01:14:38;5.03;;;3.10;;
79755;SDS011;69239;50.678;12.280;2023-07-20T01:17:04;6.68;;;2.75;;
79755;SDS011;69239;50.678;12.280;2023-07-20T01:19:29;6.38;;;2.00;;
79755;SDS011;69239;50.678;12.280;2023-07-20T01:24:48;4.60;;;2.42;;
79755;SDS011;69239;50.678;12.280;2023-07-20T01:33:03;5.30;;;3.00;;
79755;SDS011;69239;50.678;12.280;2023-07-20T01:35:30;2.60;;;1.90;;
79755;SDS011;69239;50.678;12.280;2023-07-20T01:37:56;4.82;;;2.70;;
79755;SDS011;69239;50.678;12.280;2023-07-20T01:40:24;5.25;;;2.88;;
79755;SDS011;69239;50.678;12.280;2023-07-20T01:42:51;4.55;;;3.22;;
79755;SDS011;69239;50.678;12.280;2023-07-20T01:45:17;4.45;;;3.10;;
79755;SDS011;69239;50.678;12.280;2023-07-20T01:47:42;4.95;;;3.80;;
79755;SDS011;69239;50.678;12.280;2023-07-20T01:50:08;5.22;;;3.53;;
79755;SDS011;69239;50.678;12.280;2023-07-20T01:52:34;3.50;;;2.60;;
79755;SDS011;69239;50.678;12.280;2023-07-20T01:54:59;3.47;;;2.10;;
79755;SDS011;69239;50.678;12.280;2023-07-20T01:57:24;4.22;;;2.88;;
79755;SDS011;69239;50.678;12.280;2023-07-20T01:59:50;4.22;;;2.45;;
79755;SDS011;69239;50.678;12.280;2023-07-20T02:02:15;4.13;;;3.33;;
79755;SDS011;69239;50.678;12.280;2023-07-20T02:04:40;5.10;;;3.10;;
79755;SDS011;69239;50.678;12.280;2023-07-20T02:07:06;6.03;;;2.05;;
79755;SDS011;69239;50.678;12.280;2023-07-20T02:09:31;3.83;;;2.10;;
79755;SDS011;69239;50.678;12.280;2023-07-20T02:11:56;3.70;;;1.87;;
79755;SDS011;69239;50.678;12.280;2023-07-20T02:14:22;4.88;;;2.53;;
79755;SDS011;69239;50.678;12.280;2023-07-20T02:16:48;3.75;;;2.60;;
79755;SDS011;69239;50.678;12.280;2023-07-20T02:19:17;6.30;;;3.30;;
79755;SDS011;69239;50.678;12.280;2023-07-20T02:21:44;5.72;;;3.42;;
79755;SDS011;69239;50.678;12.280;2023-07-20T02:24:09;5.15;;;3.17;;
79755;SDS011;69239;50.678;12.280;2023-07-20T02:26:34;7.82;;;3.45;;
79755;SDS011;69239;50.678;12.280;2023-07-20T02:29:00;17.15;;;2.90;;
79755;SDS011;69239;50.678;12.280;2023-07-20T02:31:25;2.35;;;2.15;;
79755;SDS011;69239;50.678;12.280;2023-07-20T02:33:50;6.88;;;2.60;;
79755;SDS011;69239;50.678;12.280;2023-07-20T02:36:16;3.08;;;2.10;;
79755;SDS011;69239;50.678;12.280;2023-07-20T02:38:42;2.17;;;1.65;;
79755;SDS011;69239;50.678;12.280;2023-07-20T02:41:07;4.25;;;3.42;;
79755;SDS011;69239;50.678;12.280;2023-07-20T02:43:32;2.78;;;2.45;;
79755;SDS011;69239;50.678;12.280;2023-07-20T02:45:58;3.60;;;3.30;;
79755;SDS011;69239;50.678;12.280;2023-07-20T02:48:23;5.15;;;3.42;;
79755;SDS011;69239;50.678;12.280;2023-07-20T02:50:48;6.85;;;3.10;;
79755;SDS011;69239;50.678;12.280;2023-07-20T02:53:14;3.30;;;2.20;;
79755;SDS011;69239;50.678;12.280;2023-07-20T02:55:39;6.33;;;3.07;;
79755;SDS011;69239;50.678;12.280;2023-07-20T02:58:04;3.78;;;2.40;;
79755;SDS011;69239;50.678;12.280;2023-07-20T03:00:30;4.88;;;2.42;;
79755;SDS011;69239;50.678;12.280;2023-07-20T03:02:55;3.40;;;2.58;;
79755;SDS011;69239;50.678;12.280;2023-07-20T03:05:21;4.25;;;2.35;;
79755;SDS011;69239;50.678;12.280;2023-07-20T03:07:50;3.78;;;2.47;;
79755;SDS011;69239;50.678;12.280;2023-07-20T03:10:16;4.38;;;1.73;;
79755;SDS011;69239;50.678;12.280;2023-07-20T03:12:41;2.95;;;2.40;;
79755;SDS011;69239;50.678;12.280;2023-07-20T03:15:07;3.35;;;2.70;;
79755;SDS011;69239;50.678;12.280;2023-07-20T03:17:33;2.65;;;2.45;;
79755;SDS011;69239;50.678;12.280;2023-07-20T03:19:58;3.55;;;2.20;;
79755;SDS011;69239;50.678;12.280;2023-07-20T03:22:25;4.95;;;3.30;;
79755;SDS011;69239;50.678;12.280;2023-07-20T03:24:51;4.90;;;3.10;;
79755;SDS011;69239;50.678;12.280;2023-07-20T03:27:17;7.55;;;3.97;;
79755;SDS011;69239;50.678;12.280;2023-07-20T03:29:43;6.22;;;3.55;;
79755;SDS011;69239;50.678;12.280;2023-07-20T03:32:09;7.45;;;3.50;;
79755;SDS011;69239;50.678;12.280;2023-07-20T03:34:34;5.57;;;3.30;;
79755;SDS011;69239;50.678;12.280;2023-07-20T03:37:00;4.60;;;2.45;;
79755;SDS011;69239;50.678;12.280;2023-07-20T03:39:26;4.10;;;2.67;;
79755;SDS011;69239;50.678;12.280;2023-07-20T03:41:51;3.00;;;2.15;;
79755;SDS011;69239;50.678;12.280;2023-07-20T03:44:16;6.22;;;3.05;;
79755;SDS011;69239;50.678;12.280;2023-07-20T03:46:42;9.52;;;4.25;;
79755;SDS011;69239;50.678;12.280;2023-07-20T03:49:07;4.82;;;2.88;;
79755;SDS011;69239;50.678;12.280;2023-07-20T03:51:34;5.25;;;2.75;;
79755;SDS011;69239;50.678;12.280;2023-07-20T03:54:00;7.38;;;4.10;;
79755;SDS011;69239;50.678;12.280;2023-07-20T03:56:25;6.10;;;4.03;;
79755;SDS011;69239;50.678;12.280;2023-07-20T03:58:51;6.50;;;3.78;;
79755;SDS011;69239;50.678;12.280;2023-07-20T04:01:16;5.38;;;2.63;;
79755;SDS011;69239;50.678;12.280;2023-07-20T04:03:42;3.78;;;3.30;;
79755;SDS011;69239;50.678;12.280;2023-07-20T04:06:08;5.68;;;2.70;;
79755;SDS011;69239;50.678;12.280;2023-07-20T04:08:33;3.80;;;2.92;;
79755;SDS011;69239;50.678;12.280;2023-07-20T04:11:00;5.25;;;3.17;;
79755;SDS011;69239;50.678;12.280;2023-07-20T04:13:29;5.50;;;3.75;;
79755;SDS011;69239;50.678;12.280;2023-07-20T04:15:59;7.88;;;4.22;;
79755;SDS011;69239;50.678;12.280;2023-07-20T04:18:25;5.38;;;3.53;;
79755;SDS011;69239;50.678;12.280;2023-07-20T04:20:50;6.70;;;3.50;;
79755;SDS011;69239;50.678;12.280;2023-07-20T04:23:15;3.03;;;2.63;;
79755;SDS011;69239;50.678;12.280;2023-07-20T04:25:41;9.55;;;3.22;;
79755;SDS011;69239;50.678;12.280;2023-07-20T04:28:07;4.03;;;2.80;;
79755;SDS011;69239;50.678;12.280;2023-07-20T04:30:36;6.57;;;3.25;;
79755;SDS011;69239;50.678;12.280;2023-07-20T04:33:02;5.65;;;3.13;;
79755;SDS011;69239;50.678;12.280;2023-07-20T04:35:48;5.07;;;3.53;;
79755;SDS011;69239;50.678;12.280;2023-07-20T04:38:15;3.70;;;3.30;;
79755;SDS011;69239;50.678;12.280;2023-07-20T04:40:42;3.42;;;2.90;;
79755;SDS011;69239;50.678;12.280;2023-07-20T04:43:11;3.53;;;3.22;;
79755;SDS011;69239;50.678;12.280;2023-07-20T04:45:36;5.35;;;3.45;;
79755;SDS011;69239;50.678;12.280;2023-07-20T04:48:02;5.30;;;3.60;;
79755;SDS011;69239;50.678;12.280;2023-07-20T04:50:27;3.30;;;3.00;;
79755;SDS011;69239;50.678;12.280;2023-07-20T04:52:53;4.05;;;3.33;;
79755;SDS011;69239;50.678;12.280;2023-07-20T04:55:18;5.40;;;4.10;;
79755;SDS011;69239;50.678;12.280;2023-07-20T04:57:43;5.30;;;4.10;;
79755;SDS011;69239;50.678;12.280;2023-07-20T05:00:09;8.43;;;4.65;;
79755;SDS011;69239;50.678;12.280;2023-07-20T05:02:36;6.47;;;3.90;;
79755;SDS011;69239;50.678;12.280;2023-07-20T05:05:02;6.22;;;3.28;;
79755;SDS011;69239;50.678;12.280;2023-07-20T05:07:30;6.60;;;3.03;;
79755;SDS011;69239;50.678;12.280;2023-07-20T05:09:55;4.40;;;3.20;;
79755;SDS011;69239;50.678;12.280;2023-07-20T05:12:20;4.23;;;2.50;;
79755;SDS011;69239;50.678;12.280;2023-07-20T05:14:45;7.25;;;3.33;;
79755;SDS011;69239;50.678;12.280;2023-07-20T05:17:11;6.73;;;4.07;;
79755;SDS011;69239;50.678;12.280;2023-07-20T05:19:36;9.85;;;3.38;;
79755;SDS011;69239;50.678;12.280;2023-07-20T05:22:02;6.70;;;4.25;;
79755;SDS011;69239;50.678;12.280;2023-07-20T05:24:27;5.88;;;3.25;;
79755;SDS011;69239;50.678;12.280;2023-07-20T05:26:52;6.40;;;3.97;;
79755;SDS011;69239;50.678;12.280;2023-07-20T05:29:19;8.18;;;4.18;;
79755;SDS011;69239;50.678;12.280;2023-07-20T05:31:44;4.97;;;3.08;;
79755;SDS011;69239;50.678;12.280;2023-07-20T05:34:09;6.03;;;3.65;;
79755;SDS011;69239;50.678;12.280;2023-07-20T05:36:35;4.90;;;3.57;;
79755;SDS011;69239;50.678;12.280;2023-07-20T05:39:01;5.35;;;4.13;;
79755;SDS011;69239;50.678;12.280;2023-07-20T05:41:27;6.82;;;4.75;;
79755;SDS011;69239;50.678;12.280;2023-07-20T05:43:52;7.15;;;3.83;;
79755;SDS011;69239;50.678;12.280;2023-07-20T05:46:17;7.80;;;4.20;;
79755;SDS011;69239;50.678;12.280;2023-07-20T05:48:43;10.93;;;4.20;;
79755;SDS011;69239;50.678;12.280;2023-07-20T05:51:08;5.28;;;3.88;;
79755;SDS011;69239;50.678;12.280;2023-07-20T05:53:34;7.72;;;3.88;;
79755;SDS011;69239;50.678;12.280;2023-07-20T05:56:00;6.93;;;3.67;;
79755;SDS011;69239;50.678;12.280;2023-07-20T05:58:25;5.67;;;3.70;;
79755;SDS011;69239;50.678;12.280;2023-07-20T06:00:51;4.70;;;3.75;;
79755;SDS011;69239;50.678;12.280;2023-07-20T06:03:18;6.80;;;4.30;;
79755;SDS011;69239;50.678;12.280;2023-07-20T06:05:46;7.55;;;4.05;;
79755;SDS011;69239;50.678;12.280;2023-07-20T06:08:12;5.10;;;3.72;;
79755;SDS011;69239;50.678;12.280;2023-07-20T06:10:37;9.57;;;3.60;;
79755;SDS011;69239;50.678;12.280;2023-07-20T06:13:02;5.20;;;3.72;;
79755;SDS011;69239;50.678;12.280;2023-07-20T06:15:30;6.15;;;3.97;;
79755;SDS011;69239;50.678;12.280;2023-07-20T06:17:57;6.18;;;4.03;;
79755;SDS011;69239;50.678;12.280;2023-07-20T06:20:23;4.63;;;3.80;;
79755;SDS011;69239;50.678;12.280;2023-07-20T06:22:49;4.65;;;3.22;;
79755;SDS011;69239;50.678;12.280;2023-07-20T06:25:14;5.13;;;3.78;;
79755;SDS011;69239;50.678;12.280;2023-07-20T06:27:40;6.50;;;3.85;;
79755;SDS011;69239;50.678;12.280;2023-07-20T06:30:05;7.10;;;3.90;;
79755;SDS011;69239;50.678;12.280;2023-07-20T06:32:31;6.00;;;4.10;;
79755;SDS011;69239;50.678;12.280;2023-07-20T06:34:57;4.13;;;3.08;;
79755;SDS011;69239;50.678;12.280;2023-07-20T06:37:22;4.55;;;3.35;;
79755;SDS011;69239;50.678;12.280;2023-07-20T06:39:48;3.13;;;2.17;;
79755;SDS011;69239;50.678;12.280;2023-07-20T06:42:14;5.15;;;3.15;;
79755;SDS011;69239;50.678;12.280;2023-07-20T06:44:39;8.43;;;3.53;;
79755;SDS011;69239;50.678;12.280;2023-07-20T06:47:04;3.30;;;2.78;;
79755;SDS011;69239;50.678;12.280;2023-07-20T06:49:30;3.35;;;2.50;;
79755;SDS011;69239;50.678;12.280;2023-07-20T06:51:55;6.28;;;3.47;;
79755;SDS011;69239;50.678;12.280;2023-07-20T06:54:21;5.45;;;4.03;;
79755;SDS011;69239;50.678;12.280;2023-07-20T06:56:46;4.03;;;3.13;;
79755;SDS011;69239;50.678;12.280;2023-07-20T06:59:12;6.05;;;4.07;;
79755;SDS011;69239;50.678;12.280;2023-07-20T07:01:37;5.35;;;3.72;;
79755;SDS011;69239;50.678;12.280;2023-07-20T07:04:04;4.45;;;3.67;;
79755;SDS011;69239;50.678;12.280;2023-07-20T07:06:30;5.50;;;3.47;;
79755;SDS011;69239;50.678;12.280;2023-07-20T07:08:56;5.00;;;4.15;;
79755;SDS011;69239;50.678;12.280;2023-07-20T07:11:21;5.00;;;2.67;;
79755;SDS011;69239;50.678;12.280;2023-07-20T07:13:48;4.07;;;2.72;;
79755;SDS011;69239;50.678;12.280;2023-07-20T07:16:16;3.75;;;2.58;;
79755;SDS011;69239;50.678;12.280;2023-07-20T07:18:44;6.22;;;3.28;;
79755;SDS011;69239;50.678;12.280;2023-07-20T07:21:10;8.30;;;3.67;;
79755;SDS011;69239;50.678;12.280;2023-07-20T07:23:35;5.13;;;3.00;;
79755;SDS011;69239;50.678;12.280;2023-07-20T07:26:00;7.78;;;3.60;;
79755;SDS011;69239;50.678;12.280;2023-07-20T07:28:25;2.97;;;2.60;;
79755;SDS011;69239;50.678;12.280;2023-07-20T07:30:51;4.20;;;2.80;;
79755;SDS011;69239;50.678;12.280;2023-07-20T07:33:16;4.97;;;3.80;;
79755;SDS011;69239;50.678;12.280;2023-07-20T07:35:41;4.78;;;3.35;;
79755;SDS011;69239;50.678;12.280;2023-07-20T07:38:07;4.28;;;3.67;;
79755;SDS011;69239;50.678;12.280;2023-07-20T07:40:32;4.60;;;3.20;;
79755;SDS011;69239;50.678;12.280;2023-07-20T07:42:58;4.32;;;3.50;;
79755;SDS011;69239;50.678;12.280;2023-07-20T07:45:23;5.43;;;3.63;;
79755;SDS011;69239;50.678;12.280;2023-07-20T07:47:48;5.53;;;3.58;;
79755;SDS011;69239;50.678;12.280;2023-07-20T07:50:14;4.45;;;3.10;;
79755;SDS011;69239;50.678;12.280;2023-07-20T07:52:39;6.35;;;3.13;;
79755;SDS011;69239;50.678;12.280;2023-07-20T07:55:05;5.70;;;3.33;;
79755;SDS011;69239;50.678;12.280;2023-07-20T07:57:30;5.70;;;3.40;;
79755;SDS011;69239;50.678;12.280;2023-07-20T07:59:56;4.25;;;3.30;;
79755;SDS011;69239;50.678;12.280;2023-07-20T08:02:21;4.93;;;2.33;;
79755;SDS011;69239;50.678;12.280;2023-07-20T08:04:46;5.82;;;2.88;;
79755;SDS011;69239;50.678;12.280;2023-07-20T08:07:12;4.07;;;2.20;;
79755;SDS011;69239;50.678;12.280;2023-07-20T08:09:37;5.63;;;2.10;;
79755;SDS011;69239;50.678;12.280;2023-07-20T08:12:03;4.63;;;2.28;;
79755;SDS011;69239;50.678;12.280;2023-07-20T08:14:29;2.53;;;1.90;;
79755;SDS011;69239;50.678;12.280;2023-07-20T08:16:54;4.13;;;1.80;;
79755;SDS011;69239;50.678;12.280;2023-07-20T08:19:20;3.67;;;1.60;;
79755;SDS011;69239;50.678;12.280;2023-07-20T08:21:45;3.17;;;1.48;;
79755;SDS011;69239;50.678;12.280;2023-07-20T08:24:10;2.33;;;1.35;;
79755;SDS011;69239;50.678;12.280;2023-07-20T08:26:36;1.97;;;1.20;;
79755;SDS011;69239;50.678;12.280;2023-07-20T08:29:01;1.85;;;1.27;;
79755;SDS011;69239;50.678;12.280;2023-07-20T08:31:26;1.55;;;1.30;;
79755;SDS011;69239;50.678;12.280;2023-07-20T08:33:53;2.03;;;1.60;;
79755;SDS011;69239;50.678;12.280;2023-07-20T08:36:18;1.65;;;1.52;;
79755;SDS011;69239;50.678;12.280;2023-07-20T08:38:44;1.73;;;1.50;;
79755;SDS011;69239;50.678;12.280;2023-07-20T08:41:09;2.85;;;1.60;;
79755;SDS011;69239;50.678;12.280;2023-07-20T08:43:34;2.92;;;1.40;;
79755;SDS011;69239;50.678;12.280;2023-07-20T08:46:02;3.17;;;1.70;;
79755;SDS011;69239;50.678;12.280;2023-07-20T08:48:29;2.40;;;1.40;;
79755;SDS011;69239;50.678;12.280;2023-07-20T08:50:56;1.65;;;1.10;;
79755;SDS011;69239;50.678;12.280;2023-07-20T08:53:23;2.55;;;0.98;;
79755;SDS011;69239;50.678;12.280;2023-07-20T08:55:50;1.58;;;1.20;;
79755;SDS011;69239;50.678;12.280;2023-07-20T08:58:16;2.45;;;1.38;;
79755;SDS011;69239;50.678;12.280;2023-07-20T09:00:42;2.78;;;1.52;;
79755;SDS011;69239;50.678;12.280;2023-07-20T09:03:08;2.33;;;1.20;;
79755;SDS011;69239;50.678;12.280;2023-07-20T09:05:34;2.53;;;1.35;;
79755;SDS011;69239;50.678;12.280;2023-07-20T09:08:00;3.60;;;1.30;;
79755;SDS011;69239;50.678;12.280;2023-07-20T09:10:28;1.35;;;1.23;;
79755;SDS011;69239;50.678;12.280;2023-07-20T09:12:54;1.55;;;1.33;;
79755;SDS011;69239;50.678;12.280;2023-07-20T09:15:20;2.55;;;1.30;;
79755;SDS011;69239;50.678;12.280;2023-07-20T09:17:47;2.25;;;1.20;;
79755;SDS011;69239;50.678;12.280;2023-07-20T09:20:14;1.83;;;1.35;;
79755;SDS011;69239;50.678;12.280;2023-07-20T09:22:41;2.60;;;1.60;;
79755;SDS011;69239;50.678;12.280;2023-07-20T09:25:17;1.63;;;1.30;;
79755;SDS011;69239;50.678;12.280;2023-07-20T09:27:48;2.00;;;1.30;;
79755;SDS011;69239;50.678;12.280;2023-07-20T09:30:14;1.20;;;1.10;;
79755;SDS011;69239;50.678;12.280;2023-07-20T09:32:48;1.85;;;1.35;;
79755;SDS011;69239;50.678;12.280;2023-07-20T09:35:16;2.05;;;1.20;;
79755;SDS011;69239;50.678;12.280;2023-07-20T09:38:00;1.92;;;1.38;;
79755;SDS011;69239;50.678;12.280;2023-07-20T09:40:27;1.75;;;1.38;;
79755;SDS011;69239;50.678;12.280;2023-07-20T09:42:53;1.42;;;1.27;;
79755;SDS011;69239;50.678;12.280;2023-07-20T09:45:28;2.00;;;1.50;;
79755;SDS011;69239;50.678;12.280;2023-07-20T09:48:06;2.53;;;1.20;;
79755;SDS011;69239;50.678;12.280;2023-07-20T09:50:42;2.28;;;1.30;;
79755;SDS011;69239;50.678;12.280;2023-07-20T09:53:14;1.77;;;1.10;;
79755;SDS011;69239;50.678;12.280;2023-07-20T09:55:43;2.28;;;1.20;;
79755;SDS011;69239;50.678;12.280;2023-07-20T09:58:09;1.33;;;1.23;;
79755;SDS011;69239;50.678;12.280;2023-07-20T10:00:38;1.85;;;1.25;;
79755;SDS011;69239;50.678;12.280;2023-07-20T10:03:08;2.65;;;1.08;;
79755;SDS011;69239;50.678;12.280;2023-07-20T10:05:37;1.08;;;0.98;;
79755;SDS011;69239;50.678;12.280;2023-07-20T10:08:09;1.73;;;1.25;;
79755;SDS011;69239;50.678;12.280;2023-07-20T10:10:37;1.50;;;1.30;;
79755;SDS011;69239;50.678;12.280;2023-07-20T10:13:05;1.58;;;1.10;;
79755;SDS011;69239;50.678;12.280;2023-07-20T10:15:43;1.90;;;1.38;;
79755;SDS011;69239;50.678;12.280;2023-07-20T10:18:14;2.58;;;1.35;;
79755;SDS011;69239;50.678;12.280;2023-07-20T10:20:46;2.95;;;1.35;;
79755;SDS011;69239;50.678;12.280;2023-07-20T10:23:13;2.53;;;1.40;;
79755;SDS011;69239;50.678;12.280;2023-07-20T10:25:38;1.63;;;1.15;;
79755;SDS011;69239;50.678;12.280;2023-07-20T10:28:06;2.22;;;1.20;;
79755;SDS011;69239;50.678;12.280;2023-07-20T10:30:32;1.60;;;1.50;;
79755;SDS011;69239;50.678;12.280;2023-07-20T10:33:00;1.45;;;1.15;;
79755;SDS011;69239;50.678;12.280;2023-07-20T10:35:27;2.55;;;1.20;;
79755;SDS011;69239;50.678;12.280;2023-07-20T10:38:02;1.30;;;1.20;;
79755;SDS011;69239;50.678;12.280;2023-07-20T10:40:31;1.25;;;1.00;;
79755;SDS011;69239;50.678;12.280;2023-07-20T10:43:03;1.25;;;1.15;;
79755;SDS011;69239;50.678;12.280;2023-07-20T10:45:39;1.25;;;1.05;;
79755;SDS011;69239;50.678;12.280;2023-07-20T10:48:16;1.42;;;1.30;;
79755;SDS011;69239;50.678;12.280;2023-07-20T10:50:44;2.25;;;1.35;;
79755;SDS011;69239;50.678;12.280;2023-07-20T10:53:11;1.20;;;1.10;;
79755;SDS011;69239;50.678;12.280;2023-07-20T10:55:39;1.50;;;1.00;;
79755;SDS011;69239;50.678;12.280;2023-07-20T11:00:55;1.30;;;1.20;;
79755;SDS011;69239;50.678;12.280;2023-07-20T11:03:28;1.00;;;1.00;;
79755;SDS011;69239;50.678;12.280;2023-07-20T11:08:48;1.63;;;1.27;;
79755;SDS011;69239;50.678;12.280;2023-07-20T11:11:28;1.60;;;1.15;;
79755;SDS011;69239;50.678;12.280;2023-07-20T11:14:01;1.30;;;1.20;;
79755;SDS011;69239;50.678;12.280;2023-07-20T11:16:32;2.63;;;1.48;;
79755;SDS011;69239;50.678;12.280;2023-07-20T11:19:17;1.60;;;1.38;;
79755;SDS011;69239;50.678;12.280;2023-07-20T11:21:46;1.65;;;1.55;;
79755;SDS011;69239;50.678;12.280;2023-07-20T11:24:14;3.45;;;1.50;;
79755;SDS011;69239;50.678;12.280;2023-07-20T11:26:40;1.80;;;1.23;;
79755;SDS011;69239;50.678;12.280;2023-07-20T11:29:12;2.20;;;1.23;;
79755;SDS011;69239;50.678;12.280;2023-07-20T11:31:39;1.73;;;1.20;;
79755;SDS011;69239;50.678;12.280;2023-07-20T11:34:07;1.75;;;1.23;;
79755;SDS011;69239;50.678;12.280;2023-07-20T11:36:35;2.72;;;1.40;;
79755;SDS011;69239;50.678;12.280;2023-07-20T11:39:01;2.92;;;1.70;;
79755;SDS011;69239;50.678;12.280;2023-07-20T11:41:29;3.35;;;1.90;;
79755;SDS011;69239;50.678;12.280;2023-07-20T11:43:55;2.10;;;1.90;;
79755;SDS011;69239;50.678;12.280;2023-07-20T11:46:20;3.75;;;2.03;;
79755;SDS011;69239;50.678;12.280;2023-07-20T11:48:46;5.28;;;2.10;;
79755;SDS011;69239;50.678;12.280;2023-07-20T11:51:15;3.08;;;2.15;;
79755;SDS011;69239;50.678;12.280;2023-07-20T11:53:42;3.50;;;2.25;;
79755;SDS011;69239;50.678;12.280;2023-07-20T11:56:09;2.47;;;2.08;;
79755;SDS011;69239;50.678;12.280;2023-07-20T11:58:35;1.85;;;1.75;;
79755;SDS011;69239;50.678;12.280;2023-07-20T12:01:00;3.53;;;2.08;;
79755;SDS011;69239;50.678;12.280;2023-07-20T12:03:27;2.88;;;2.25;;
79755;SDS011;69239;50.678;12.280;2023-07-20T12:05:52;2.90;;;2.30;;
79755;SDS011;69239;50.678;12.280;2023-07-20T12:08:17;2.33;;;2.13;;
79755;SDS011;69239;50.678;12.280;2023-07-20T12:10:43;2.30;;;2.10;;
79755;SDS011;69239;50.678;12.280;2023-07-20T12:13:10;4.55;;;2.67;;
79755;SDS011;69239;50.678;12.280;2023-07-20T12:15:36;4.30;;;2.30;;
79755;SDS011;69239;50.678;12.280;2023-07-20T12:18:02;3.67;;;2.28;;
79755;SDS011;69239;50.678;12.280;2023-07-20T12:22:56;1.60;;;1.50;;
79755;SDS011;69239;50.678;12.280;2023-07-20T12:25:23;2.63;;;1.50;;
79755;SDS011;69239;50.678;12.280;2023-07-20T12:27:48;2.45;;;1.60;;
79755;SDS011;69239;50.678;12.280;2023-07-20T12:30:14;1.60;;;1.50;;
79755;SDS011;69239;50.678;12.280;2023-07-20T12:32:39;2.22;;;1.65;;
79755;SDS011;69239;50.678;12.280;2023-07-20T12:35:05;3.45;;;1.80;;
79755;SDS011;69239;50.678;12.280;2023-07-20T12:37:31;1.63;;;1.52;;
79755;SDS011;69239;50.678;12.280;2023-07-20T12:39:56;3.25;;;1.73;;
79755;SDS011;69239;50.678;12.280;2023-07-20T12:42:22;4.57;;;2.00;;
79755;SDS011;69239;50.678;12.280;2023-07-20T12:44:48;1.95;;;1.60;;
79755;SDS011;69239;50.678;12.280;2023-07-20T12:47:14;1.58;;;1.38;;
79755;SDS011;69239;50.678;12.280;2023-07-20T12:49:39;3.25;;;1.50;;
79755;SDS011;69239;50.678;12.280;2023-07-20T12:52:05;1.65;;;1.55;;
79755;SDS011;69239;50.678;12.280;2023-07-20T12:54:31;1.45;;;1.35;;
79755;SDS011;69239;50.678;12.280;2023-07-20T12:56:57;2.03;;;1.30;;
79755;SDS011;69239;50.678;12.280;2023-07-20T12:59:23;1.40;;;1.10;;
79755;SDS011;69239;50.678;12.280;2023-07-20T13:01:48;1.05;;;0.90;;
79755;SDS011;69239;50.678;12.280;2023-07-20T13:04:13;1.20;;;0.80;;
79755;SDS011;69239;50.678;12.280;2023-07-20T13:06:39;0.85;;;0.68;;
79755;SDS011;69239;50.678;12.280;2023-07-20T13:09:04;0.73;;;0.68;;
79755;SDS011;69239;50.678;12.280;2023-07-20T13:11:29;0.63;;;0.63;;
79755;SDS011;69239;50.678;12.280;2023-07-20T13:13:55;0.70;;;0.50;;
79755;SDS011;69239;50.678;12.280;2023-07-20T13:16:20;0.93;;;0.60;;
79755;SDS011;69239;50.678;12.280;2023-07-20T13:18:45;0.75;;;0.75;;
79755;SDS011;69239;50.678;12.280;2023-07-20T13:21:11;0.93;;;0.75;;
79755;SDS011;69239;50.678;12.280;2023-07-20T13:23:36;0.80;;;0.80;;
79755;SDS011;69239;50.678;12.280;2023-07-20T13:26:02;1.20;;;0.98;;
79755;SDS011;69239;50.678;12.280;2023-07-20T13:28:29;1.05;;;0.80;;
79755;SDS011;69239;50.678;12.280;2023-07-20T13:30:55;0.70;;;0.60;;
79755;SDS011;69239;50.678;12.280;2023-07-20T13:33:20;1.52;;;0.63;;
79755;SDS011;69239;50.678;12.280;2023-07-20T13:35:45;1.53;;;0.90;;
79755;SDS011;69239;50.678;12.280;2023-07-20T13:38:11;0.75;;;0.75;;
79755;SDS011;69239;50.678;12.280;2023-07-20T13:40:37;0.77;;;0.77;;
79755;SDS011;69239;50.678;12.280;2023-07-20T13:43:02;0.70;;;0.70;;
79755;SDS011;69239;50.678;12.280;2023-07-20T13:45:27;0.80;;;0.63;;
79755;SDS011;69239;50.678;12.280;2023-07-20T13:47:53;0.73;;;0.70;;
79755;SDS011;69239;50.678;12.280;2023-07-20T13:50:18;1.45;;;0.80;;
79755;SDS011;69239;50.678;12.280;2023-07-20T13:52:43;1.27;;;0.80;;
79755;SDS011;69239;50.678;12.280;2023-07-20T13:55:09;1.33;;;0.60;;
79755;SDS011;69239;50.678;12.280;2023-07-20T13:57:34;1.25;;;0.80;;
79755;SDS011;69239;50.678;12.280;2023-07-20T13:59:59;1.50;;;0.95;;
79755;SDS011;69239;50.678;12.280;2023-07-20T14:02:26;1.80;;;0.90;;
79755;SDS011;69239;50.678;12.280;2023-07-20T14:04:51;2.78;;;1.33;;
79755;SDS011;69239;50.678;12.280;2023-07-20T14:07:19;1.58;;;1.13;;
79755;SDS011;69239;50.678;12.280;2023-07-20T14:09:45;1.00;;;0.93;;
79755;SDS011;69239;50.678;12.280;2023-07-20T14:12:10;1.45;;;0.95;;
79755;SDS011;69239;50.678;12.280;2023-07-20T14:14:39;1.02;;;0.82;;
79755;SDS011;69239;50.678;12.280;2023-07-20T14:17:05;2.10;;;1.10;;
79755;SDS011;69239;50.678;12.280;2023-07-20T14:19:31;1.00;;;0.95;;
79755;SDS011;69239;50.678;12.280;2023-07-20T14:21:56;1.80;;;1.07;;
79755;SDS011;69239;50.678;12.280;2023-07-20T14:24:24;1.80;;;1.05;;
79755;SDS011;69239;50.678;12.280;2023-07-20T14:26:49;0.93;;;0.87;;
79755;SDS011;69239;50.678;12.280;2023-07-20T14:29:14;1.35;;;0.90;;
79755;SDS011;69239;50.678;12.280;2023-07-20T14:31:39;0.80;;;0.80;;
79755;SDS011;69239;50.678;12.280;2023-07-20T14:34:05;0.77;;;0.77;;
79755;SDS011;69239;50.678;12.280;2023-07-20T14:36:30;1.08;;;0.68;;
79755;SDS011;69239;50.678;12.280;2023-07-20T14:38:55;1.58;;;0.80;;
79755;SDS011;69239;50.678;12.280;2023-07-20T14:41:21;0.77;;;0.77;;
79755;SDS011;69239;50.678;12.280;2023-07-20T14:43:46;1.00;;;0.80;;
79755;SDS011;69239;50.678;12.280;2023-07-20T14:46:11;0.80;;;0.70;;
79755;SDS011;69239;50.678;12.280;2023-07-20T14:48:37;0.77;;;0.70;;
79755;SDS011;69239;50.678;12.280;2023-07-20T14:51:02;0.70;;;0.70;;
79755;SDS011;69239;50.678;12.280;2023-07-20T14:53:28;1.42;;;0.77;;